createdAt,value
2022-07-27T00:01:10.577Z,68.60
2022-07-27T00:03:38.601Z,68.60
2022-07-27T00:06:05.833Z,68.80
2022-07-27T00:08:32.929Z,68.70
2022-07-27T00:11:00.033Z,68.60
2022-07-27T00:13:27.099Z,68.60
2022-07-27T00:15:54.477Z,68.50
2022-07-27T00:18:22.022Z,68.80
2022-07-27T00:20:49.318Z,68.70
2022-07-27T00:23:16.368Z,68.70
2022-07-27T00:25:43.533Z,68.60
2022-07-27T00:28:10.705Z,68.70
2022-07-27T00:30:37.667Z,68.60
2022-07-27T00:33:06.063Z,68.60
2022-07-27T00:35:33.381Z,68.60
2022-07-27T00:38:03.270Z,68.80
2022-07-27T00:40:30.542Z,68.80
2022-07-27T00:42:57.737Z,68.90
2022-07-27T00:45:24.830Z,68.90
2022-07-27T00:47:55.055Z,68.90
2022-07-27T00:50:22.416Z,68.90
2022-07-27T00:52:49.901Z,69.10
2022-07-27T00:55:17.144Z,69.30
2022-07-27T00:57:58.278Z,69.40
2022-07-27T01:00:28.678Z,69.30
2022-07-27T01:02:57.393Z,69.00
2022-07-27T01:05:35.870Z,69.00
2022-07-27T01:08:05.285Z,69.20
2022-07-27T01:10:32.497Z,69.20
2022-07-27T01:13:00.046Z,69.40
2022-07-27T01:15:27.476Z,69.60
2022-07-27T01:17:54.489Z,69.90
2022-07-27T01:20:21.853Z,69.90
2022-07-27T01:22:48.904Z,70.00
2022-07-27T01:25:16.197Z,70.10
2022-07-27T01:27:43.219Z,70.30
2022-07-27T01:30:26.882Z,70.70
2022-07-27T01:33:05.891Z,71.10
2022-07-27T01:35:33.780Z,70.90
2022-07-27T01:38:01.150Z,72.20
2022-07-27T01:40:30.038Z,71.40
2022-07-27T01:42:57.651Z,72.20
2022-07-27T01:45:24.968Z,72.20
2022-07-27T01:47:51.867Z,72.10
2022-07-27T01:50:19.010Z,72.70
2022-07-27T01:52:46.038Z,72.70
2022-07-27T01:55:13.208Z,73.90
2022-07-27T01:57:40.421Z,73.30
2022-07-27T02:00:12.116Z,73.20
2022-07-27T02:02:42.051Z,73.40
2022-07-27T02:05:13.419Z,73.20
2022-07-27T02:07:41.918Z,73.10
2022-07-27T02:10:10.335Z,73.10
2022-07-27T02:12:38.275Z,73.20
2022-07-27T02:15:16.255Z,73.70
2022-07-27T02:17:44.920Z,73.60
2022-07-27T02:20:14.857Z,73.50
2022-07-27T02:22:42.504Z,73.60
2022-07-27T02:25:12.599Z,73.60
2022-07-27T02:27:42.065Z,73.70
2022-07-27T02:30:11.693Z,73.60
2022-07-27T02:32:40.952Z,73.70
2022-07-27T02:35:19.587Z,73.70
2022-07-27T02:37:49.118Z,74.00
2022-07-27T02:40:17.872Z,74.00
2022-07-27T02:42:47.617Z,73.90
2022-07-27T02:45:17.805Z,74.20
2022-07-27T02:47:45.542Z,74.50
2022-07-27T02:50:13.334Z,74.30
2022-07-27T02:52:40.512Z,74.40
2022-07-27T02:55:08.620Z,74.60
2022-07-27T02:57:37.880Z,74.80
2022-07-27T03:00:12.842Z,74.90
2022-07-27T03:02:40.805Z,74.80
2022-07-27T03:05:09.801Z,74.70
2022-07-27T03:07:37.744Z,74.60
2022-07-27T03:10:05.548Z,74.70
2022-07-27T03:12:32.556Z,75.00
2022-07-27T03:14:59.718Z,74.80
2022-07-27T03:17:27.046Z,74.80
2022-07-27T03:19:54.129Z,74.90
2022-07-27T03:22:21.591Z,75.00
2022-07-27T03:24:48.703Z,75.10
2022-07-27T03:27:16.481Z,75.00
2022-07-27T03:29:43.545Z,75.00
2022-07-27T03:32:10.740Z,75.00
2022-07-27T03:34:37.712Z,75.00
2022-07-27T03:37:04.684Z,75.00
2022-07-27T03:39:31.667Z,75.00
2022-07-27T03:41:58.782Z,75.10
2022-07-27T03:44:26.032Z,75.00
2022-07-27T03:46:53.044Z,75.00
2022-07-27T03:49:20.219Z,75.00
2022-07-27T03:51:47.350Z,75.00
2022-07-27T03:54:14.421Z,75.00
2022-07-27T03:56:41.629Z,74.70
2022-07-27T03:59:09.200Z,74.60
2022-07-27T04:01:36.426Z,74.40
2022-07-27T04:04:03.643Z,74.40
2022-07-27T04:06:30.754Z,74.40
2022-07-27T04:09:08.059Z,74.30
2022-07-27T04:11:37.687Z,74.30
2022-07-27T04:14:13.007Z,74.20
2022-07-27T04:16:41.635Z,74.20
2022-07-27T04:19:09.425Z,74.30
2022-07-27T04:21:36.765Z,74.30
2022-07-27T04:24:05.418Z,74.20
2022-07-27T04:26:32.924Z,74.10
2022-07-27T04:29:00.018Z,74.20
2022-07-27T04:31:26.971Z,74.00
2022-07-27T04:33:54.224Z,73.80
2022-07-27T04:36:21.359Z,73.70
2022-07-27T04:38:48.385Z,73.80
2022-07-27T04:41:15.400Z,73.60
2022-07-27T04:43:42.787Z,73.60
2022-07-27T04:46:14.995Z,73.40
2022-07-27T04:48:49.341Z,73.30
2022-07-27T04:51:18.177Z,73.40
2022-07-27T04:53:52.799Z,73.40
2022-07-27T04:56:26.506Z,73.40
2022-07-27T04:58:54.437Z,73.30
2022-07-27T05:01:23.030Z,73.30
2022-07-27T05:03:50.301Z,73.30
2022-07-27T05:06:17.401Z,73.20
2022-07-27T05:08:44.708Z,73.00
2022-07-27T05:11:11.847Z,72.80
2022-07-27T05:13:42.030Z,73.00
2022-07-27T05:16:10.869Z,72.90
2022-07-27T05:18:39.779Z,72.90
2022-07-27T05:21:08.245Z,72.80
2022-07-27T05:23:36.015Z,72.40
2022-07-27T05:26:03.291Z,72.30
2022-07-27T05:28:31.032Z,72.20
2022-07-27T05:30:58.519Z,72.00
2022-07-27T05:33:25.556Z,72.10
2022-07-27T05:35:52.758Z,71.80
2022-07-27T05:38:20.148Z,71.80
2022-07-27T05:40:47.776Z,71.90
2022-07-27T05:43:14.975Z,71.50
2022-07-27T05:45:42.327Z,71.50
2022-07-27T05:48:09.642Z,71.30
2022-07-27T05:50:37.218Z,71.20
2022-07-27T05:53:04.328Z,70.90
2022-07-27T05:55:31.378Z,70.90
2022-07-27T05:57:58.451Z,70.90
2022-07-27T06:00:27.119Z,70.70
2022-07-27T06:02:54.682Z,70.60
2022-07-27T06:05:21.893Z,70.50
2022-07-27T06:08:08.782Z,70.30
2022-07-27T06:10:39.560Z,70.50
2022-07-27T06:13:09.351Z,70.10
2022-07-27T06:15:38.242Z,70.20
2022-07-27T06:18:07.186Z,70.30
2022-07-27T06:20:34.224Z,70.00
2022-07-27T06:23:07.814Z,69.40
2022-07-27T06:25:36.430Z,70.10
2022-07-27T06:28:07.083Z,69.10
2022-07-27T06:30:34.519Z,68.50
2022-07-27T06:33:06.662Z,68.70
2022-07-27T06:35:34.492Z,68.60
2022-07-27T06:38:03.282Z,68.50
2022-07-27T06:40:32.027Z,68.60
2022-07-27T06:43:00.246Z,68.20
2022-07-27T06:45:27.669Z,68.00
2022-07-27T06:47:54.809Z,67.90
2022-07-27T06:50:22.781Z,67.70
2022-07-27T06:52:49.946Z,67.60
2022-07-27T06:55:17.641Z,67.40
2022-07-27T06:57:46.359Z,67.10
2022-07-27T07:00:14.431Z,67.20
2022-07-27T07:02:58.750Z,67.00
2022-07-27T07:05:26.266Z,66.50
2022-07-27T07:07:54.085Z,66.40
2022-07-27T07:10:23.789Z,66.80
2022-07-27T07:12:55.615Z,66.40
2022-07-27T07:15:26.817Z,66.20
2022-07-27T07:17:54.617Z,66.30
2022-07-27T07:20:22.683Z,66.20
2022-07-27T07:22:50.181Z,66.30
2022-07-27T07:25:17.908Z,66.50
2022-07-27T07:27:44.912Z,66.30
2022-07-27T07:30:13.102Z,66.30
2022-07-27T07:32:40.747Z,66.30
2022-07-27T07:35:08.597Z,66.40
2022-07-27T07:37:36.114Z,66.40
2022-07-27T07:40:40.100Z,66.50
2022-07-27T07:43:01.166Z,66.30
2022-07-27T07:45:31.589Z,66.10
2022-07-27T07:47:59.529Z,65.90
2022-07-27T07:50:27.232Z,66.10
2022-07-27T07:52:55.126Z,65.70
2022-07-27T07:55:24.706Z,65.70
2022-07-27T07:57:51.938Z,65.60
2022-07-27T08:00:20.878Z,65.70
2022-07-27T08:02:54.425Z,65.60
2022-07-27T08:05:22.684Z,65.20
2022-07-27T08:07:51.550Z,65.20
2022-07-27T08:10:21.276Z,65.40
2022-07-27T08:12:54.595Z,65.20
2022-07-27T08:15:35.111Z,64.90
2022-07-27T08:18:06.593Z,65.00
2022-07-27T08:20:34.662Z,64.90
2022-07-27T08:23:02.878Z,64.80
2022-07-27T08:25:29.956Z,64.40
2022-07-27T08:27:57.762Z,64.20
2022-07-27T08:30:25.109Z,63.90
2022-07-27T08:32:59.785Z,63.50
2022-07-27T08:35:28.868Z,63.20
2022-07-27T08:37:55.901Z,63.40
2022-07-27T08:40:41.814Z,63.50
2022-07-27T08:43:12.009Z,63.70
2022-07-27T08:45:41.970Z,63.20
2022-07-27T08:48:14.332Z,63.60
2022-07-27T08:50:42.722Z,62.70
2022-07-27T08:53:13.417Z,63.20
2022-07-27T08:55:44.783Z,63.10
2022-07-27T08:58:13.932Z,62.80
2022-07-27T09:00:48.312Z,62.70
2022-07-27T09:03:20.114Z,62.70
2022-07-27T09:05:55.707Z,62.60
2022-07-27T09:08:30.189Z,62.00
2022-07-27T09:10:59.546Z,62.10
2022-07-27T09:13:32.709Z,62.10
2022-07-27T09:16:22.971Z,61.70
2022-07-27T09:19:06.082Z,61.60
2022-07-27T09:21:35.641Z,61.50
2022-07-27T09:24:23.491Z,61.70
2022-07-27T09:27:05.850Z,61.00
2022-07-27T09:29:36.821Z,60.80
2022-07-27T09:32:17.686Z,60.80
2022-07-27T09:34:45.779Z,60.00
2022-07-27T09:37:25.194Z,60.30
2022-07-27T09:40:11.563Z,60.00
2022-07-27T09:43:08.900Z,60.30
2022-07-27T09:45:35.787Z,60.10
2022-07-27T09:48:17.710Z,59.70
2022-07-27T09:51:02.562Z,60.00
2022-07-27T09:53:43.854Z,59.80
2022-07-27T09:56:16.137Z,58.60
2022-07-27T09:58:53.806Z,57.70
2022-07-27T10:01:25.336Z,57.60
2022-07-27T10:04:00.469Z,57.50
2022-07-27T10:06:29.166Z,56.60
2022-07-27T10:08:58.324Z,56.20
2022-07-27T10:11:26.819Z,56.30
2022-07-27T10:13:56.765Z,55.60
2022-07-27T10:16:28.880Z,55.90
2022-07-27T10:19:14.689Z,55.20
2022-07-27T10:21:47.448Z,55.40
2022-07-27T10:24:36.900Z,54.90
2022-07-27T10:27:21.345Z,55.90
2022-07-27T10:29:50.370Z,55.20
2022-07-27T10:32:31.193Z,53.90
2022-07-27T10:35:01.233Z,52.50
2022-07-27T10:37:34.314Z,53.50
2022-07-27T10:40:26.856Z,52.80
2022-07-27T10:43:29.606Z,52.80
2022-07-27T10:46:01.838Z,54.00
2022-07-27T10:48:48.290Z,51.40
2022-07-27T10:51:17.682Z,50.40
2022-07-27T10:56:48.024Z,51.20
2022-07-27T10:59:15.882Z,51.60
2022-07-27T11:02:03.447Z,51.40
2022-07-27T11:04:32.345Z,52.10
2022-07-27T11:10:07.615Z,51.60
2022-07-27T11:12:36.746Z,51.70
2022-07-27T11:15:04.908Z,51.70
2022-07-27T11:17:54.165Z,51.50
2022-07-27T11:20:24.140Z,51.80
2022-07-27T11:25:39.096Z,51.90
2022-07-27T11:28:09.900Z,51.90
2022-07-27T11:30:37.370Z,51.70
2022-07-27T11:33:05.225Z,52.30
2022-07-27T11:35:32.471Z,52.80
2022-07-27T11:38:06.631Z,52.30
2022-07-27T11:40:57.357Z,52.00
2022-07-27T11:43:38.975Z,52.70
2022-07-27T11:46:19.716Z,52.90
2022-07-27T11:49:10.176Z,52.60
2022-07-27T11:51:49.442Z,53.20
2022-07-27T11:54:27.832Z,52.50
2022-07-27T11:57:02.470Z,52.60
2022-07-27T11:59:42.625Z,52.60
2022-07-27T12:02:18.001Z,52.30
2022-07-27T12:04:48.690Z,52.30
2022-07-27T12:07:18.814Z,51.90
2022-07-27T12:09:55.981Z,51.50
2022-07-27T12:12:28.456Z,50.80
2022-07-27T12:14:58.765Z,50.90
2022-07-27T12:17:32.884Z,50.80
2022-07-27T12:20:11.500Z,48.10
2022-07-27T12:22:44.347Z,50.00
2022-07-27T12:25:29.689Z,50.30
2022-07-27T12:28:07.353Z,50.30
2022-07-27T12:30:47.233Z,49.80
2022-07-27T12:33:37.693Z,49.50
2022-07-27T12:36:08.862Z,50.20
2022-07-27T12:38:50.340Z,49.80
2022-07-27T12:41:35.562Z,49.30
2022-07-27T12:44:18.228Z,46.10
2022-07-27T12:47:27.626Z,46.40
2022-07-27T12:50:07.885Z,46.20
2022-07-27T12:52:38.849Z,45.00
2022-07-27T12:55:10.628Z,45.40
2022-07-27T12:57:55.352Z,42.50
2022-07-27T13:00:33.646Z,42.40
2022-07-27T13:03:03.174Z,41.80
2022-07-27T13:05:31.621Z,40.70
2022-07-27T13:07:59.777Z,40.00
2022-07-27T13:10:27.739Z,39.40
2022-07-27T13:12:55.143Z,39.00
2022-07-27T13:15:22.373Z,38.70
2022-07-27T13:17:50.480Z,37.60
2022-07-27T13:20:18.006Z,36.20
2022-07-27T13:22:47.314Z,35.70
2022-07-27T13:25:17.289Z,34.20
2022-07-27T13:27:47.641Z,34.00
2022-07-27T13:30:17.113Z,33.50
2022-07-27T13:32:48.748Z,32.40
2022-07-27T13:35:17.224Z,31.80
2022-07-27T13:37:45.466Z,31.80
2022-07-27T13:40:13.706Z,31.00
2022-07-27T13:42:40.951Z,29.90
2022-07-27T13:45:10.999Z,30.20
2022-07-27T13:47:40.753Z,30.40
2022-07-27T13:50:17.206Z,31.00
2022-07-27T13:52:47.219Z,31.90
2022-07-27T13:55:16.403Z,32.90
2022-07-27T13:57:45.396Z,33.10
2022-07-27T14:00:13.562Z,33.50
2022-07-27T14:02:42.001Z,33.90
2022-07-27T14:05:14.130Z,34.60
2022-07-27T14:07:43.687Z,34.90
2022-07-27T14:10:31.492Z,35.40
2022-07-27T14:13:08.204Z,35.00
2022-07-27T14:15:50.446Z,35.80
2022-07-27T14:18:23.761Z,36.30
2022-07-27T14:20:51.289Z,36.80
2022-07-27T14:23:18.717Z,36.50
2022-07-27T14:25:47.030Z,36.70
2022-07-27T14:28:14.273Z,37.60
2022-07-27T14:30:41.366Z,38.20
2022-07-27T14:33:08.560Z,37.50
2022-07-27T14:35:40.240Z,37.20
2022-07-27T14:38:09.486Z,36.90
2022-07-27T14:40:38.041Z,35.90
2022-07-27T14:43:06.525Z,35.80
2022-07-27T14:45:44.780Z,35.70
2022-07-27T14:48:23.089Z,35.80
2022-07-27T14:50:55.859Z,36.20
2022-07-27T14:53:23.184Z,36.90
2022-07-27T14:55:50.425Z,37.10
2022-07-27T14:58:17.637Z,37.40
2022-07-27T15:00:45.111Z,37.80
2022-07-27T15:03:14.676Z,38.00
2022-07-27T15:05:50.533Z,38.30
2022-07-27T15:08:20.258Z,38.70
2022-07-27T15:10:49.875Z,39.10
2022-07-27T15:13:18.080Z,39.30
2022-07-27T15:15:48.367Z,39.70
2022-07-27T15:18:18.835Z,40.10
2022-07-27T15:20:49.365Z,40.70
2022-07-27T15:23:17.406Z,41.40
2022-07-27T15:25:44.933Z,41.60
2022-07-27T15:28:12.343Z,41.80
2022-07-27T15:30:39.912Z,42.10
2022-07-27T15:33:07.443Z,42.30
2022-07-27T15:35:34.743Z,42.40
2022-07-27T15:38:02.057Z,43.00
2022-07-27T15:40:38.230Z,43.80
2022-07-27T15:43:12.337Z,43.90
2022-07-27T15:45:48.502Z,43.70
2022-07-27T15:48:19.443Z,43.10
2022-07-27T15:50:50.861Z,42.80
2022-07-27T15:53:20.874Z,41.00
2022-07-27T15:55:49.285Z,40.50
2022-07-27T15:58:19.512Z,39.60
2022-07-27T16:00:53.295Z,38.60
2022-07-27T16:03:25.510Z,38.00
2022-07-27T16:05:53.524Z,37.90
2022-07-27T16:08:22.827Z,37.40
2022-07-27T16:10:50.091Z,37.30
2022-07-27T16:13:17.404Z,37.20
2022-07-27T16:16:03.972Z,37.50
2022-07-27T16:18:35.329Z,37.90
2022-07-27T16:21:05.567Z,38.30
2022-07-27T16:23:32.945Z,38.50
2022-07-27T16:26:04.490Z,38.80
2022-07-27T16:28:42.369Z,39.40
2022-07-27T16:31:13.952Z,39.50
2022-07-27T16:33:44.517Z,40.00
2022-07-27T16:36:12.410Z,40.70
2022-07-27T16:38:49.556Z,41.00
2022-07-27T16:41:22.359Z,41.40
2022-07-27T16:43:50.104Z,42.00
2022-07-27T16:46:17.983Z,42.30
2022-07-27T16:48:45.467Z,42.80
2022-07-27T16:51:14.360Z,43.10
2022-07-27T16:53:44.563Z,43.60
2022-07-27T16:56:12.307Z,44.00
2022-07-27T16:58:39.631Z,44.50
2022-07-27T17:01:08.269Z,45.20
2022-07-27T17:03:35.880Z,45.60
2022-07-27T17:06:06.387Z,45.50
2022-07-27T17:08:36.188Z,45.40
2022-07-27T17:11:06.076Z,47.30
2022-07-27T17:13:34.649Z,46.20
2022-07-27T17:16:04.379Z,46.50
2022-07-27T17:18:38.945Z,46.80
2022-07-27T17:21:07.748Z,46.90
2022-07-27T17:23:38.329Z,47.20
2022-07-27T17:26:08.773Z,47.40
2022-07-27T17:28:39.377Z,47.70
2022-07-27T17:31:12.285Z,47.90
2022-07-27T17:33:41.361Z,48.10
2022-07-27T17:36:14.598Z,48.50
2022-07-27T17:38:47.757Z,48.70
2022-07-27T17:41:23.534Z,49.30
2022-07-27T17:43:52.038Z,49.00
2022-07-27T17:46:19.721Z,49.40
2022-07-27T17:48:47.172Z,49.70
2022-07-27T17:51:14.702Z,49.90
2022-07-27T17:53:41.776Z,50.20
2022-07-27T17:56:11.086Z,50.40
2022-07-27T17:58:38.932Z,50.70
2022-07-27T18:01:07.099Z,50.70
2022-07-27T18:03:35.217Z,51.10
2022-07-27T18:06:02.676Z,51.30
2022-07-27T18:08:30.080Z,51.70
2022-07-27T18:10:57.347Z,51.90
2022-07-27T18:13:39.222Z,52.20
2022-07-27T18:16:11.984Z,52.40
2022-07-27T18:18:42.773Z,52.70
2022-07-27T18:21:11.445Z,52.80
2022-07-27T18:23:39.568Z,53.00
2022-07-27T18:26:07.844Z,53.20
2022-07-27T18:28:39.543Z,53.40
2022-07-27T18:31:08.136Z,53.60
2022-07-27T18:33:37.019Z,53.80
2022-07-27T18:36:06.507Z,54.10
2022-07-27T18:38:33.632Z,54.30
2022-07-27T18:41:00.677Z,54.40
2022-07-27T18:43:27.836Z,54.40
2022-07-27T18:45:55.285Z,54.70
2022-07-27T18:48:22.605Z,54.70
2022-07-27T18:50:49.836Z,54.80
2022-07-27T18:53:17.252Z,55.10
2022-07-27T18:55:45.014Z,56.70
2022-07-27T18:58:12.155Z,55.50
2022-07-27T19:00:39.104Z,55.50
2022-07-27T19:03:06.386Z,55.70
2022-07-27T19:05:41.355Z,55.90
2022-07-27T19:08:13.508Z,56.10
2022-07-27T19:10:45.279Z,56.70
2022-07-27T19:13:13.572Z,56.80
2022-07-27T19:15:41.490Z,56.30
2022-07-27T19:18:09.030Z,56.60
2022-07-27T19:20:37.839Z,56.70
2022-07-27T19:23:08.081Z,56.80
2022-07-27T19:25:35.606Z,57.90
2022-07-27T19:28:04.308Z,57.20
2022-07-27T19:30:31.680Z,57.60
2022-07-27T19:32:59.530Z,57.90
2022-07-27T19:35:27.591Z,58.40
2022-07-27T19:37:54.930Z,58.60
2022-07-27T19:43:10.561Z,58.60
2022-07-27T19:45:41.184Z,58.90
2022-07-27T19:48:11.858Z,59.90
2022-07-27T19:50:39.663Z,59.40
2022-07-27T19:53:06.888Z,59.40
2022-07-27T19:55:34.723Z,59.60
2022-07-27T19:58:01.933Z,59.80
2022-07-27T20:00:29.155Z,59.70
2022-07-27T20:02:57.661Z,60.00
2022-07-27T20:05:24.846Z,60.20
2022-07-27T20:07:52.935Z,60.10
2022-07-27T20:10:21.820Z,60.20
2022-07-27T20:12:48.784Z,60.60
2022-07-27T20:15:16.085Z,60.60
2022-07-27T20:17:43.958Z,60.70
2022-07-27T20:20:12.793Z,60.80
2022-07-27T20:22:40.905Z,61.60
2022-07-27T20:25:11.799Z,61.40
2022-07-27T20:27:39.417Z,61.70
2022-07-27T20:30:09.011Z,61.70
2022-07-27T20:32:36.529Z,61.90
2022-07-27T20:35:04.983Z,62.20
2022-07-27T20:37:32.640Z,62.50
2022-07-27T20:39:59.685Z,62.70
2022-07-27T20:42:27.500Z,62.30
2022-07-27T20:44:55.138Z,63.40
2022-07-27T20:47:22.586Z,63.40
2022-07-27T20:49:49.731Z,62.40
2022-07-27T20:52:17.065Z,62.70
2022-07-27T20:54:44.378Z,62.70
2022-07-27T20:57:11.693Z,62.70
2022-07-27T20:59:39.135Z,62.70
2022-07-27T21:02:07.668Z,62.60
2022-07-27T21:04:35.504Z,62.60
2022-07-27T21:07:02.530Z,62.60
2022-07-27T21:09:31.489Z,62.60
2022-07-27T21:11:58.844Z,62.70
2022-07-27T21:14:26.190Z,62.60
2022-07-27T21:16:53.439Z,62.60
2022-07-27T21:19:22.395Z,62.50
2022-07-27T21:21:49.693Z,62.90
2022-07-27T21:24:17.557Z,62.90
2022-07-27T21:26:50.807Z,63.10
2022-07-27T21:29:19.717Z,63.90
2022-07-27T21:31:49.480Z,63.40
2022-07-27T21:34:20.435Z,63.40
2022-07-27T21:36:48.496Z,63.60
2022-07-27T21:39:16.212Z,63.50
2022-07-27T21:41:43.494Z,63.60
2022-07-27T21:44:11.418Z,63.60
2022-07-27T21:46:38.721Z,63.60
2022-07-27T21:49:06.210Z,63.80
2022-07-27T21:51:33.556Z,63.80
2022-07-27T21:54:00.975Z,63.90
2022-07-27T21:56:28.743Z,63.90
2022-07-27T21:58:55.844Z,63.90
2022-07-27T22:01:23.325Z,63.90
2022-07-27T22:03:50.786Z,63.90
2022-07-27T22:06:18.313Z,63.90
2022-07-27T22:08:46.216Z,63.90
2022-07-27T22:11:13.832Z,64.10
2022-07-27T22:13:41.170Z,64.00
2022-07-27T22:16:09.087Z,64.20
2022-07-27T22:18:36.327Z,64.30
2022-07-27T22:21:03.391Z,64.10
2022-07-27T22:23:30.499Z,64.00
2022-07-27T22:25:58.040Z,63.90
2022-07-27T22:28:26.150Z,64.00
2022-07-27T22:31:16.506Z,64.00
2022-07-27T22:33:44.422Z,64.20
2022-07-27T22:36:12.403Z,64.10
2022-07-27T22:38:39.705Z,63.90
2022-07-27T22:41:08.041Z,64.00
2022-07-27T22:43:35.779Z,64.20
2022-07-27T22:46:04.888Z,64.10
2022-07-27T22:48:32.764Z,64.20
2022-07-27T22:50:59.962Z,64.30
2022-07-27T22:53:27.086Z,64.40
2022-07-27T22:55:54.280Z,64.40
2022-07-27T22:58:21.925Z,64.60
2022-07-27T23:00:49.481Z,64.70
2022-07-27T23:03:16.806Z,64.80
2022-07-27T23:05:43.919Z,64.90
2022-07-27T23:08:11.249Z,65.10
2022-07-27T23:10:47.584Z,65.10
2022-07-27T23:13:19.894Z,65.10
2022-07-27T23:15:47.542Z,65.40
2022-07-27T23:18:16.710Z,65.10
2022-07-27T23:20:44.786Z,65.10
2022-07-27T23:23:16.624Z,65.20
2022-07-27T23:25:49.892Z,65.10
2022-07-27T23:28:17.363Z,65.70
2022-07-27T23:30:44.701Z,65.30
2022-07-27T23:33:12.296Z,65.30
2022-07-27T23:35:39.510Z,65.40
2022-07-27T23:38:06.732Z,65.30
2022-07-27T23:40:33.879Z,65.40
2022-07-27T23:43:00.971Z,65.50
2022-07-27T23:45:28.415Z,66.30
2022-07-27T23:47:55.728Z,65.60
2022-07-27T23:50:23.157Z,65.50
2022-07-27T23:52:50.587Z,65.60
2022-07-27T23:55:17.888Z,65.60
2022-07-27T23:57:44.936Z,65.50
